New Orleans Nas Jrb/Alvin Callender Field/ Airport
KNBG : now visible

Airfield :











YOU CAN JOIN US ON...

 
LOGIN :

Register | Disclaimer

   EN    FR    IT 

 









Legend :    VFR   Marginal VFR   IFR   Intensive IFR   Very Intensive IFR
Visi :
Ceiling :
>= 8 km
>= 3000ft
5 to 8 km
1000 to 3000 ft
1500m to 5 km
500 to 1000 ft
800 to 1500m
200 to 500 ft
< 800m
< 200 ft
Symbols :   Thunderstorms  Fog  Heavy snow  Heavy precipitations  Wind > 20 kt






- Airport Elevation : 2 ft


KNBG - New Orleans Nas Jrb/Alvin Callender Field/

CURRENT METAR :
  • 271855Z 03009KT 7SM OVC011 13/11 A3000 RMK AO2 SLP157 T01330111 $

EXPIRED METARs :
  • 271755Z 01007KT 10SM OVC012 13/11 A3002 RMK AO2 SLP166 T01330111 10144 20122 50002 $
  • 271655Z 35010KT 10SM OVC014 14/11 A3004 RMK AO2 SLP172 T01390111 $

TAF AMD TAF KNBG
Valid from the 27 at 18:00 until the 28 at 15:00 UTC


2718/2815 01007KT 9999 OVC010 QNH2990INS
TEMPO 2718/2800 OVC008
BECMG 2800/2802 01005KT 9999 SCT008 BKN025 BKN250 QNH2995INS
BECMG 2809/2811 03007KT 9999 FEW020 SCT250 QNH2998INS T17/2720Z T10/2812Z AMD 1855 FN20039



MET'MAP, your aeronautical weather chart ! - Copyright ORBIFLY December 2007 - Disclaimer

ORBIFLY MET'MAP TEAM :

Programming & Development : Alexandra Zaïnal
Concept & original design : Baudouin d'Aumeries
Assistance for programming : Marc-Olivier Méhu
Technical & hardware support : Manuel Goepfert

Contact : metmap@orbifly.com




SOURCES & CREDITS :

   NOAA       Earth
Advisory